sensor_id;sensor_type;location;lat;lon;timestamp;pressure;altitude;pressure_sealevel;temperature;humidity
11190;BME280;5651;50.926;4.718;2023-04-02T00:01:48;100857.41;;;8.97;100.00
11190;BME280;5651;50.926;4.718;2023-04-02T00:04:19;100872.13;;;8.79;100.00
11190;BME280;5651;50.926;4.718;2023-04-02T00:06:50;100875.56;;;8.86;100.00
11190;BME280;5651;50.926;4.718;2023-04-02T00:09:29;100878.16;;;8.86;100.00
11190;BME280;5651;50.926;4.718;2023-04-02T00:11:55;100889.44;;;8.83;100.00
11190;BME280;5651;50.926;4.718;2023-04-02T00:16:52;100897.22;;;8.82;100.00
11190;BME280;5651;50.926;4.718;2023-04-02T00:19:31;100903.28;;;8.79;100.00
11190;BME280;5651;50.926;4.718;2023-04-02T00:22:01;100908.44;;;8.68;100.00
11190;BME280;5651;50.926;4.718;2023-04-02T00:24:27;100904.94;;;8.62;100.00
11190;BME280;5651;50.926;4.718;2023-04-02T00:26:54;100905.78;;;8.57;100.00
11190;BME280;5651;50.926;4.718;2023-04-02T00:29:20;100906.63;;;8.53;100.00
11190;BME280;5651;50.926;4.718;2023-04-02T00:31:48;100911.84;;;8.60;100.00
11190;BME280;5651;50.926;4.718;2023-04-02T00:34:41;100909.22;;;8.53;100.00
11190;BME280;5651;50.926;4.718;2023-04-02T00:37:15;100917.06;;;8.63;100.00
11190;BME280;5651;50.926;4.718;2023-04-02T00:39:43;100919.66;;;8.58;100.00
11190;BME280;5651;50.926;4.718;2023-04-02T00:42:11;100921.34;;;8.54;100.00
11190;BME280;5651;50.926;4.718;2023-04-02T00:44:39;100921.34;;;8.56;100.00
11190;BME280;5651;50.926;4.718;2023-04-02T00:47:14;100932.59;;;8.53;100.00
11190;BME280;5651;50.926;4.718;2023-04-02T00:49:43;100933.47;;;8.51;100.00
11190;BME280;5651;50.926;4.718;2023-04-02T00:52:13;100930.84;;;8.48;100.00
11190;BME280;5651;50.926;4.718;2023-04-02T00:54:48;100935.16;;;8.49;100.00
11190;BME280;5651;50.926;4.718;2023-04-02T00:57:19;100936.06;;;8.51;100.00
11190;BME280;5651;50.926;4.718;2023-04-02T00:59:54;100945.59;;;8.53;100.00
11190;BME280;5651;50.926;4.718;2023-04-02T01:02:39;100944.66;;;8.47;100.00
11190;BME280;5651;50.926;4.718;2023-04-02T01:10:42;100955.00;;;8.37;100.00
11190;BME280;5651;50.926;4.718;2023-04-02T01:16:39;100967.97;;;8.39;100.00
11190;BME280;5651;50.926;4.718;2023-04-02T01:19:12;100969.75;;;8.45;100.00
11190;BME280;5651;50.926;4.718;2023-04-02T01:24:31;100975.78;;;8.40;100.00
11190;BME280;5651;50.926;4.718;2023-04-02T01:27:00;100981.81;;;8.39;100.00
11190;BME280;5651;50.926;4.718;2023-04-02T01:32:01;100990.50;;;8.43;100.00
11190;BME280;5651;50.926;4.718;2023-04-02T01:34:29;100987.88;;;8.34;100.00
11190;BME280;5651;50.926;4.718;2023-04-02T01:37:11;100991.28;;;8.28;100.00
11190;BME280;5651;50.926;4.718;2023-04-02T01:45:38;101018.91;;;8.21;100.00
11190;BME280;5651;50.926;4.718;2023-04-02T01:48:22;101035.28;;;8.11;100.00
11190;BME280;5651;50.926;4.718;2023-04-02T01:50:53;101037.78;;;8.05;100.00
11190;BME280;5651;50.926;4.718;2023-04-02T01:53:23;101026.56;;;8.03;100.00
11190;BME280;5651;50.926;4.718;2023-04-02T01:55:55;101030.91;;;8.07;100.00
11190;BME280;5651;50.926;4.718;2023-04-02T01:58:23;101036.97;;;8.07;100.00
11190;BME280;5651;50.926;4.718;2023-04-02T02:01:04;101044.69;;;8.00;100.00
11190;BME280;5651;50.926;4.718;2023-04-02T02:03:32;101043.81;;;8.01;100.00
11190;BME280;5651;50.926;4.718;2023-04-02T02:06:00;101049.88;;;8.00;100.00
11190;BME280;5651;50.926;4.718;2023-04-02T02:08:40;101057.66;;;7.98;100.00
11190;BME280;5651;50.926;4.718;2023-04-02T02:11:13;101061.09;;;7.97;100.00
11190;BME280;5651;50.926;4.718;2023-04-02T02:13:45;101067.94;;;7.89;100.00
11190;BME280;5651;50.926;4.718;2023-04-02T02:16:15;101070.47;;;7.81;100.00
11190;BME280;5651;50.926;4.718;2023-04-02T02:18:45;101078.31;;;7.89;100.00
11190;BME280;5651;50.926;4.718;2023-04-02T02:21:40;101081.69;;;7.80;100.00
11190;BME280;5651;50.926;4.718;2023-04-02T02:24:08;101082.53;;;7.79;100.00
11190;BME280;5651;50.926;4.718;2023-04-02T02:26:40;101085.13;;;7.77;100.00
11190;BME280;5651;50.926;4.718;2023-04-02T02:29:10;101093.63;;;7.66;100.00
11190;BME280;5651;50.926;4.718;2023-04-02T02:31:39;101097.81;;;7.54;100.00
11190;BME280;5651;50.926;4.718;2023-04-02T02:34:14;101104.78;;;7.58;100.00
11190;BME280;5651;50.926;4.718;2023-04-02T02:36:54;101108.16;;;7.51;100.00
11190;BME280;5651;50.926;4.718;2023-04-02T02:39:25;101115.97;;;7.54;100.00
11190;BME280;5651;50.926;4.718;2023-04-02T02:44:38;101120.13;;;7.40;100.00
11190;BME280;5651;50.926;4.718;2023-04-02T02:47:13;101130.50;;;7.41;100.00
11190;BME280;5651;50.926;4.718;2023-04-02T02:49:52;101138.28;;;7.41;100.00
11190;BME280;5651;50.926;4.718;2023-04-02T02:52:30;101149.53;;;7.43;100.00
11190;BME280;5651;50.926;4.718;2023-04-02T02:55:01;101140.84;;;7.38;100.00
11190;BME280;5651;50.926;4.718;2023-04-02T02:57:31;101144.34;;;7.42;100.00
11190;BME280;5651;50.926;4.718;2023-04-02T03:00:00;101150.38;;;7.39;100.00
11190;BME280;5651;50.926;4.718;2023-04-02T03:02:27;101157.31;;;7.43;100.00
11190;BME280;5651;50.926;4.718;2023-04-02T03:04:54;101164.25;;;7.43;100.00
11190;BME280;5651;50.926;4.718;2023-04-02T03:07:23;101169.38;;;7.41;100.00
11190;BME280;5651;50.926;4.718;2023-04-02T03:15:41;101171.75;;;7.24;100.00
11190;BME280;5651;50.926;4.718;2023-04-02T03:20:59;101187.34;;;7.27;100.00
11190;BME280;5651;50.926;4.718;2023-04-02T03:23:33;101190.78;;;7.26;100.00
11190;BME280;5651;50.926;4.718;2023-04-02T03:26:19;101191.72;;;7.32;100.00
11190;BME280;5651;50.926;4.718;2023-04-02T03:31:37;101201.94;;;7.22;100.00
11190;BME280;5651;50.926;4.718;2023-04-02T03:34:11;101204.59;;;7.24;100.00
11190;BME280;5651;50.926;4.718;2023-04-02T03:37:10;101211.47;;;7.23;100.00
11190;BME280;5651;50.926;4.718;2023-04-02T03:39:53;101227.91;;;7.24;100.00
11190;BME280;5651;50.926;4.718;2023-04-02T03:42:21;101232.16;;;7.20;100.00
11190;BME280;5651;50.926;4.718;2023-04-02T03:45:02;101248.53;;;7.18;100.00
11190;BME280;5651;50.926;4.718;2023-04-02T03:47:44;101254.59;;;7.18;100.00
11190;BME280;5651;50.926;4.718;2023-04-02T03:50:39;101254.44;;;7.09;100.00
11190;BME280;5651;50.926;4.718;2023-04-02T03:53:04;101264.72;;;7.04;100.00
11190;BME280;5651;50.926;4.718;2023-04-02T03:55:32;101263.06;;;7.08;100.00
11190;BME280;5651;50.926;4.718;2023-04-02T03:58:01;101265.63;;;7.05;100.00
11190;BME280;5651;50.926;4.718;2023-04-02T04:00:37;101271.56;;;7.01;100.00
11190;BME280;5651;50.926;4.718;2023-04-02T04:03:10;101273.22;;;6.95;100.00
11190;BME280;5651;50.926;4.718;2023-04-02T04:05:44;101285.53;;;7.09;100.00
11190;BME280;5651;50.926;4.718;2023-04-02T04:08:16;101290.34;;;6.87;100.00
11190;BME280;5651;50.926;4.718;2023-04-02T04:10:43;101286.84;;;6.85;100.00
11190;BME280;5651;50.926;4.718;2023-04-02T04:13:13;101292.13;;;6.90;100.00
11190;BME280;5651;50.926;4.718;2023-04-02T04:15:58;101292.13;;;6.91;100.00
11190;BME280;5651;50.926;4.718;2023-04-02T04:18:31;101306.91;;;6.97;100.00
11190;BME280;5651;50.926;4.718;2023-04-02T04:21:01;101307.75;;;6.96;100.00
11190;BME280;5651;50.926;4.718;2023-04-02T04:23:35;101313.00;;;6.97;100.00
11190;BME280;5651;50.926;4.718;2023-04-02T04:34:13;101330.28;;;6.98;100.00
11190;BME280;5651;50.926;4.718;2023-04-02T04:36:48;101337.09;;;6.93;100.00
11190;BME280;5651;50.926;4.718;2023-04-02T04:39:25;101330.16;;;6.92;100.00
11190;BME280;5651;50.926;4.718;2023-04-02T04:41:56;101343.88;;;6.87;100.00
11190;BME280;5651;50.926;4.718;2023-04-02T04:47:15;101350.78;;;6.88;100.00
11190;BME280;5651;50.926;4.718;2023-04-02T04:49:54;101357.69;;;6.87;100.00
11190;BME280;5651;50.926;4.718;2023-04-02T04:52:39;101362.06;;;6.90;100.00
11190;BME280;5651;50.926;4.718;2023-04-02T04:55:27;101362.97;;;6.92;100.00
11190;BME280;5651;50.926;4.718;2023-04-02T04:57:57;101376.94;;;7.00;100.00
11190;BME280;5651;50.926;4.718;2023-04-02T05:00:43;101370.00;;;6.97;100.00
11190;BME280;5651;50.926;4.718;2023-04-02T05:09:02;101393.09;;;6.87;100.00
11190;BME280;5651;50.926;4.718;2023-04-02T05:11:35;101399.97;;;6.85;100.00
11190;BME280;5651;50.926;4.718;2023-04-02T05:14:07;101408.50;;;6.80;100.00
11190;BME280;5651;50.926;4.718;2023-04-02T05:17:03;101405.69;;;6.70;100.00
11190;BME280;5651;50.926;4.718;2023-04-02T05:19:43;101422.88;;;6.66;100.00
11190;BME280;5651;50.926;4.718;2023-04-02T05:25:22;101431.81;;;6.80;100.00
11190;BME280;5651;50.926;4.718;2023-04-02T05:32:54;101449.56;;;6.62;100.00
11190;BME280;5651;50.926;4.718;2023-04-02T05:35:28;101460.78;;;6.62;100.00
11190;BME280;5651;50.926;4.718;2023-04-02T05:37:57;101459.94;;;6.62;100.00
11190;BME280;5651;50.926;4.718;2023-04-02T05:40:29;101461.72;;;6.64;100.00
11190;BME280;5651;50.926;4.718;2023-04-02T05:42:59;101469.31;;;6.57;100.00
11190;BME280;5651;50.926;4.718;2023-04-02T05:45:34;101468.28;;;6.48;100.00
11190;BME280;5651;50.926;4.718;2023-04-02T05:48:03;101483.03;;;6.54;100.00
11190;BME280;5651;50.926;4.718;2023-04-02T05:50:36;101484.88;;;6.58;100.00
11190;BME280;5651;50.926;4.718;2023-04-02T05:55:42;101493.41;;;6.54;100.00
11190;BME280;5651;50.926;4.718;2023-04-02T05:58:18;101493.41;;;6.54;100.00
11190;BME280;5651;50.926;4.718;2023-04-02T06:01:13;101504.63;;;6.53;100.00
11190;BME280;5651;50.926;4.718;2023-04-02T06:03:44;101509.44;;;6.38;100.00
11190;BME280;5651;50.926;4.718;2023-04-02T06:09:34;101513.72;;;6.36;100.00
11190;BME280;5651;50.926;4.718;2023-04-02T06:12:59;101525.81;;;6.37;100.00
11190;BME280;5651;50.926;4.718;2023-04-02T06:15:00;101528.47;;;6.40;100.00
11190;BME280;5651;50.926;4.718;2023-04-02T06:17:26;101534.44;;;6.37;100.00
11190;BME280;5651;50.926;4.718;2023-04-02T06:19:53;101536.16;;;6.37;100.00
11190;BME280;5651;50.926;4.718;2023-04-02T06:22:37;101541.34;;;6.37;100.00
11190;BME280;5651;50.926;4.718;2023-04-02T06:25:14;101550.88;;;6.38;100.00
11190;BME280;5651;50.926;4.718;2023-04-02T06:27:43;101549.28;;;6.44;100.00
11190;BME280;5651;50.926;4.718;2023-04-02T06:30:22;101556.88;;;6.37;100.00
11190;BME280;5651;50.926;4.718;2023-04-02T06:32:49;101566.22;;;6.31;100.00
11190;BME280;5651;50.926;4.718;2023-04-02T06:35:15;101563.63;;;6.31;100.00
11190;BME280;5651;50.926;4.718;2023-04-02T06:37:47;101572.31;;;6.33;100.00
11190;BME280;5651;50.926;4.718;2023-04-02T06:40:49;101564.56;;;6.33;100.00
11190;BME280;5651;50.926;4.718;2023-04-02T06:43:30;101573.28;;;6.37;100.00
11190;BME280;5651;50.926;4.718;2023-04-02T06:46:04;101581.13;;;6.40;100.00
11190;BME280;5651;50.926;4.718;2023-04-02T06:48:32;101590.56;;;6.38;100.00
11190;BME280;5651;50.926;4.718;2023-04-02T06:51:04;101595.72;;;6.37;100.00
11190;BME280;5651;50.926;4.718;2023-04-02T06:58:42;101609.53;;;6.39;100.00
11190;BME280;5651;50.926;4.718;2023-04-02T07:01:11;101616.41;;;6.37;100.00
11190;BME280;5651;50.926;4.718;2023-04-02T07:03:41;101619.94;;;6.40;100.00
11190;BME280;5651;50.926;4.718;2023-04-02T07:06:14;101622.44;;;6.37;100.00
11190;BME280;5651;50.926;4.718;2023-04-02T07:08:40;101624.88;;;6.31;100.00
11190;BME280;5651;50.926;4.718;2023-04-02T07:11:06;101626.31;;;6.19;100.00
11190;BME280;5651;50.926;4.718;2023-04-02T07:13:32;101639.31;;;6.21;100.00
11190;BME280;5651;50.926;4.718;2023-04-02T07:15:57;101633.84;;;6.10;100.00
11190;BME280;5651;50.926;4.718;2023-04-02T07:18:28;101646.16;;;6.19;100.00
11190;BME280;5651;50.926;4.718;2023-04-02T07:20:55;101655.56;;;6.17;100.00
11190;BME280;5651;50.926;4.718;2023-04-02T07:23:21;101654.41;;;6.04;100.00
11190;BME280;5651;50.926;4.718;2023-04-02T07:25:48;101654.31;;;6.02;100.00
11190;BME280;5651;50.926;4.718;2023-04-02T07:28:15;101656.84;;;5.99;100.00
11190;BME280;5651;50.926;4.718;2023-04-02T07:30:42;101658.53;;;5.99;100.00
11190;BME280;5651;50.926;4.718;2023-04-02T07:33:20;101665.59;;;6.05;100.00
11190;BME280;5651;50.926;4.718;2023-04-02T07:35:47;101680.25;;;6.04;100.00
11190;BME280;5651;50.926;4.718;2023-04-02T07:38:13;101688.09;;;6.07;100.00
11190;BME280;5651;50.926;4.718;2023-04-02T07:40:38;101689.88;;;6.10;100.00
11190;BME280;5651;50.926;4.718;2023-04-02T07:43:05;101693.25;;;6.07;100.00
11190;BME280;5651;50.926;4.718;2023-04-02T07:45:31;101705.38;;;6.08;100.00
11190;BME280;5651;50.926;4.718;2023-04-02T07:48:03;101719.84;;;6.01;100.00
11190;BME280;5651;50.926;4.718;2023-04-02T07:50:29;101718.84;;;5.98;100.00
11190;BME280;5651;50.926;4.718;2023-04-02T07:52:55;101717.44;;;6.08;100.00
11190;BME280;5651;50.926;4.718;2023-04-02T07:55:21;101717.44;;;6.08;100.00
11190;BME280;5651;50.926;4.718;2023-04-02T07:57:53;101721.81;;;6.10;100.00
11190;BME280;5651;50.926;4.718;2023-04-02T08:00:20;101730.31;;;6.06;100.00
11190;BME280;5651;50.926;4.718;2023-04-02T08:02:46;101736.28;;;6.03;100.00
11190;BME280;5651;50.926;4.718;2023-04-02T08:05:12;101736.25;;;6.02;100.00
11190;BME280;5651;50.926;4.718;2023-04-02T08:07:38;101739.69;;;6.02;100.00
11190;BME280;5651;50.926;4.718;2023-04-02T08:10:05;101741.47;;;6.03;100.00
11190;BME280;5651;50.926;4.718;2023-04-02T08:12:31;101739.84;;;6.07;100.00
11190;BME280;5651;50.926;4.718;2023-04-02T08:14:57;101746.81;;;6.10;100.00
11190;BME280;5651;50.926;4.718;2023-04-02T08:17:23;101758.28;;;6.19;100.00
11190;BME280;5651;50.926;4.718;2023-04-02T08:19:49;101764.34;;;6.20;100.00
11190;BME280;5651;50.926;4.718;2023-04-02T08:22:15;101771.44;;;6.26;100.00
11190;BME280;5651;50.926;4.718;2023-04-02T08:24:41;101771.44;;;6.26;100.00
11190;BME280;5651;50.926;4.718;2023-04-02T08:27:07;101790.31;;;6.23;100.00
11190;BME280;5651;50.926;4.718;2023-04-02T08:29:33;101786.06;;;6.25;100.00
11190;BME280;5651;50.926;4.718;2023-04-02T08:31:59;101793.16;;;6.32;100.00
11190;BME280;5651;50.926;4.718;2023-04-02T08:34:25;101790.50;;;6.29;100.00
11190;BME280;5651;50.926;4.718;2023-04-02T08:36:55;101793.47;;;6.43;100.00
11190;BME280;5651;50.926;4.718;2023-04-02T08:39:21;101800.91;;;6.31;100.00
11190;BME280;5651;50.926;4.718;2023-04-02T08:45:22;101814.84;;;6.36;100.00
11190;BME280;5651;50.926;4.718;2023-04-02T08:47:21;101825.91;;;6.30;100.00
11190;BME280;5651;50.926;4.718;2023-04-02T08:50:00;101824.06;;;6.26;100.00
11190;BME280;5651;50.926;4.718;2023-04-02T08:52:30;101830.81;;;6.21;100.00
11190;BME280;5651;50.926;4.718;2023-04-02T08:54:56;101845.56;;;6.24;100.00
11190;BME280;5651;50.926;4.718;2023-04-02T09:00:24;101847.44;;;6.29;100.00
11190;BME280;5651;50.926;4.718;2023-04-02T09:03:07;101850.44;;;6.14;100.00
11190;BME280;5651;50.926;4.718;2023-04-02T09:05:38;101858.69;;;6.31;100.00
11190;BME280;5651;50.926;4.718;2023-04-02T09:08:15;101865.19;;;6.17;100.00
11190;BME280;5651;50.926;4.718;2023-04-02T09:10:52;101878.25;;;6.22;100.00
11190;BME280;5651;50.926;4.718;2023-04-02T09:13:23;101872.28;;;6.24;100.00
11190;BME280;5651;50.926;4.718;2023-04-02T09:15:54;101881.13;;;6.31;100.00
11190;BME280;5651;50.926;4.718;2023-04-02T09:18:20;101877.41;;;6.21;100.00
11190;BME280;5651;50.926;4.718;2023-04-02T09:20:46;101873.25;;;6.28;100.00
11190;BME280;5651;50.926;4.718;2023-04-02T09:23:19;101882.47;;;6.18;100.00
11190;BME280;5651;50.926;4.718;2023-04-02T09:25:49;101888.09;;;6.33;100.00
11190;BME280;5651;50.926;4.718;2023-04-02T09:28:17;101894.84;;;6.27;100.00
11190;BME280;5651;50.926;4.718;2023-04-02T09:30:57;101890.66;;;6.32;100.00
11190;BME280;5651;50.926;4.718;2023-04-02T09:33:47;101902.16;;;6.42;100.00
11190;BME280;5651;50.926;4.718;2023-04-02T09:36:38;101902.44;;;6.51;100.00
11190;BME280;5651;50.926;4.718;2023-04-02T09:39:15;101909.53;;;6.57;100.00
11190;BME280;5651;50.926;4.718;2023-04-02T09:41:42;101912.31;;;6.64;100.00
11190;BME280;5651;50.926;4.718;2023-04-02T09:44:18;101921.28;;;6.76;100.00
11190;BME280;5651;50.926;4.718;2023-04-02T09:46:56;101921.03;;;6.68;100.00
11190;BME280;5651;50.926;4.718;2023-04-02T09:49:30;101930.06;;;6.81;100.00
11190;BME280;5651;50.926;4.718;2023-04-02T09:52:07;101930.59;;;6.69;100.00
11190;BME280;5651;50.926;4.718;2023-04-02T09:54:34;101934.75;;;6.64;100.00
11190;BME280;5651;50.926;4.718;2023-04-02T09:57:18;101945.31;;;6.72;100.00
11190;BME280;5651;50.926;4.718;2023-04-02T10:00:13;101939.97;;;6.65;100.00
11190;BME280;5651;50.926;4.718;2023-04-02T10:02:45;101955.16;;;6.84;100.00
11190;BME280;5651;50.926;4.718;2023-04-02T10:05:19;101957.34;;;6.70;100.00
11190;BME280;5651;50.926;4.718;2023-04-02T10:07:49;101958.31;;;6.73;100.00
11190;BME280;5651;50.926;4.718;2023-04-02T10:12:42;101972.38;;;6.81;100.00
11190;BME280;5651;50.926;4.718;2023-04-02T10:15:21;101969.56;;;6.74;100.00
11190;BME280;5651;50.926;4.718;2023-04-02T10:18:02;101976.41;;;6.72;100.00
11190;BME280;5651;50.926;4.718;2023-04-02T10:20:31;101976.25;;;6.67;100.00
11190;BME280;5651;50.926;4.718;2023-04-02T10:22:59;101979.63;;;6.63;100.00
11190;BME280;5651;50.926;4.718;2023-04-02T10:25:27;101988.63;;;6.76;100.00
11190;BME280;5651;50.926;4.718;2023-04-02T10:31:02;102000.88;;;6.81;100.00
11190;BME280;5651;50.926;4.718;2023-04-02T10:33:35;102002.56;;;6.79;100.00
11190;BME280;5651;50.926;4.718;2023-04-02T10:36:25;102005.75;;;6.72;100.00
11190;BME280;5651;50.926;4.718;2023-04-02T10:39:20;102003.13;;;6.71;100.00
11190;BME280;5651;50.926;4.718;2023-04-02T10:44:38;102018.72;;;7.01;100.00
11190;BME280;5651;50.926;4.718;2023-04-02T10:50:07;102024.25;;;7.13;100.00
11190;BME280;5651;50.926;4.718;2023-04-02T10:52:45;102024.63;;;6.97;100.00
11190;BME280;5651;50.926;4.718;2023-04-02T10:55:16;102038.28;;;6.91;100.00
11190;BME280;5651;50.926;4.718;2023-04-02T10:57:45;102039.63;;;7.07;100.00
11190;BME280;5651;50.926;4.718;2023-04-02T11:02:51;102045.78;;;7.11;100.00
11190;BME280;5651;50.926;4.718;2023-04-02T11:05:30;102049.81;;;7.32;100.00
11190;BME280;5651;50.926;4.718;2023-04-02T11:08:22;102046.00;;;7.19;100.00
11190;BME280;5651;50.926;4.718;2023-04-02T11:10:56;102052.44;;;7.03;100.00
11190;BME280;5651;50.926;4.718;2023-04-02T11:13:30;102057.16;;;7.16;100.00
11190;BME280;5651;50.926;4.718;2023-04-02T11:16:00;102064.59;;;7.04;100.00
11190;BME280;5651;50.926;4.718;2023-04-02T11:18:31;102071.31;;;7.27;100.00
11190;BME280;5651;50.926;4.718;2023-04-02T11:21:06;102077.25;;;7.23;100.00
11190;BME280;5651;50.926;4.718;2023-04-02T11:23:55;102081.06;;;7.36;100.00
11190;BME280;5651;50.926;4.718;2023-04-02T11:31:32;102084.00;;;7.18;100.00
11190;BME280;5651;50.926;4.718;2023-04-02T11:33:58;102079.47;;;7.11;100.00
11190;BME280;5651;50.926;4.718;2023-04-02T11:39:50;102096.63;;;7.36;100.00
11190;BME280;5651;50.926;4.718;2023-04-02T11:44:57;102104.97;;;7.26;100.00
11190;BME280;5651;50.926;4.718;2023-04-02T11:47:25;102100.16;;;7.38;100.00
11190;BME280;5651;50.926;4.718;2023-04-02T11:49:55;102101.28;;;7.48;100.00
11190;BME280;5651;50.926;4.718;2023-04-02T11:52:28;102100.97;;;7.37;100.00
11190;BME280;5651;50.926;4.718;2023-04-02T11:55:04;102102.22;;;7.50;100.00
11190;BME280;5651;50.926;4.718;2023-04-02T11:57:49;102106.13;;;7.66;100.00
11190;BME280;5651;50.926;4.718;2023-04-02T12:06:05;102129.47;;;7.66;100.00
11190;BME280;5651;50.926;4.718;2023-04-02T12:11:04;102135.22;;;7.56;100.00
11190;BME280;5651;50.926;4.718;2023-04-02T12:13:47;102140.16;;;7.47;100.00
11190;BME280;5651;50.926;4.718;2023-04-02T12:16:13;102141.34;;;7.58;100.00
11190;BME280;5651;50.926;4.718;2023-04-02T12:18:43;102140.16;;;7.47;100.00
11190;BME280;5651;50.926;4.718;2023-04-02T12:21:16;102140.47;;;7.57;100.00
11190;BME280;5651;50.926;4.718;2023-04-02T12:23:45;102146.25;;;7.49;100.00
11190;BME280;5651;50.926;4.718;2023-04-02T12:29:22;102150.75;;;7.54;100.00
11190;BME280;5651;50.926;4.718;2023-04-02T12:31:49;102153.06;;;7.45;100.00
11190;BME280;5651;50.926;4.718;2023-04-02T12:34:17;102155.72;;;7.47;100.00
11190;BME280;5651;50.926;4.718;2023-04-02T12:37:02;102165.88;;;7.69;100.00
11190;BME280;5651;50.926;4.718;2023-04-02T12:39:32;102171.06;;;7.69;100.00
11190;BME280;5651;50.926;4.718;2023-04-02T12:41:59;102172.28;;;7.52;100.00
11190;BME280;5651;50.926;4.718;2023-04-02T12:44:27;102174.84;;;7.50;100.00
11190;BME280;5651;50.926;4.718;2023-04-02T12:46:54;102178.78;;;7.37;100.00
11190;BME280;5651;50.926;4.718;2023-04-02T12:49:37;102180.25;;;7.58;100.00
11190;BME280;5651;50.926;4.718;2023-04-02T12:52:07;102179.38;;;7.57;100.00
11190;BME280;5651;50.926;4.718;2023-04-02T12:54:37;102186.53;;;7.66;100.00
11190;BME280;5651;50.926;4.718;2023-04-02T12:57:29;102193.66;;;7.73;100.00
11190;BME280;5651;50.926;4.718;2023-04-02T12:59:57;102193.09;;;7.84;100.00
11190;BME280;5651;50.926;4.718;2023-04-02T13:02:27;102200.00;;;7.83;100.00
11190;BME280;5651;50.926;4.718;2023-04-02T13:04:56;102197.41;;;7.53;100.00
11190;BME280;5651;50.926;4.718;2023-04-02T13:07:28;102193.69;;;7.44;100.00
11190;BME280;5651;50.926;4.718;2023-04-02T13:09:58;102198.88;;;7.44;100.00
11190;BME280;5651;50.926;4.718;2023-04-02T13:12:34;102197.72;;;7.64;100.00
11190;BME280;5651;50.926;4.718;2023-04-02T13:15:17;102199.47;;;7.65;100.00
11190;BME280;5651;50.926;4.718;2023-04-02T13:17:47;102194.63;;;7.77;100.00
11190;BME280;5651;50.926;4.718;2023-04-02T13:20:36;102198.16;;;7.79;100.00
11190;BME280;5651;50.926;4.718;2023-04-02T13:28:39;102199.59;;;8.00;100.00
11190;BME280;5651;50.926;4.718;2023-04-02T13:31:05;102205.50;;;7.94;100.00
11190;BME280;5651;50.926;4.718;2023-04-02T13:33:30;102208.00;;;7.91;100.00
11190;BME280;5651;50.926;4.718;2023-04-02T13:35:56;102210.97;;;7.73;100.00
11190;BME280;5651;50.926;4.718;2023-04-02T13:38:22;102203.41;;;7.82;100.00
11190;BME280;5651;50.926;4.718;2023-04-02T13:40:48;102212.31;;;7.90;100.00
11190;BME280;5651;50.926;4.718;2023-04-02T13:43:18;102223.34;;;7.83;100.00
11190;BME280;5651;50.926;4.718;2023-04-02T13:45:48;102225.03;;;7.81;100.00
11190;BME280;5651;50.926;4.718;2023-04-02T13:48:15;102221.97;;;7.95;100.00
11190;BME280;5651;50.926;4.718;2023-04-02T13:50:43;102230.75;;;8.00;100.00
11190;BME280;5651;50.926;4.718;2023-04-02T13:53:43;102234.16;;;7.99;100.00
11190;BME280;5651;50.926;4.718;2023-04-02T13:56:10;102232.50;;;8.01;100.00
11190;BME280;5651;50.926;4.718;2023-04-02T13:58:35;102231.31;;;7.89;100.00
11190;BME280;5651;50.926;4.718;2023-04-02T14:01:02;102239.63;;;8.08;100.00
11190;BME280;5651;50.926;4.718;2023-04-02T14:03:27;102247.16;;;7.99;100.00
11190;BME280;5651;50.926;4.718;2023-04-02T14:06:08;102241.97;;;7.99;100.00
11190;BME280;5651;50.926;4.718;2023-04-02T14:14:23;102262.16;;;8.09;100.00
11190;BME280;5651;50.926;4.718;2023-04-02T14:19:47;102258.38;;;7.98;100.00
11190;BME280;5651;50.926;4.718;2023-04-02T14:22:36;102265.81;;;7.85;100.00
11190;BME280;5651;50.926;4.718;2023-04-02T14:30:31;102272.91;;;7.91;100.00
11190;BME280;5651;50.926;4.718;2023-04-02T14:41:31;102286.38;;;7.79;100.00
11190;BME280;5651;50.926;4.718;2023-04-02T14:44:02;102288.50;;;7.64;100.00
11190;BME280;5651;50.926;4.718;2023-04-02T14:46:31;102291.72;;;7.55;100.00
11190;BME280;5651;50.926;4.718;2023-04-02T14:49:05;102285.88;;;7.62;100.00
11190;BME280;5651;50.926;4.718;2023-04-02T14:54:27;102295.16;;;7.55;100.00
11190;BME280;5651;50.926;4.718;2023-04-02T14:57:14;102299.06;;;7.42;100.00
11190;BME280;5651;50.926;4.718;2023-04-02T15:02:29;102305.06;;;7.67;100.00
11190;BME280;5651;50.926;4.718;2023-04-02T15:05:03;102303.25;;;7.65;100.00
11190;BME280;5651;50.926;4.718;2023-04-02T15:07:51;102313.44;;;7.58;100.00
11190;BME280;5651;50.926;4.718;2023-04-02T15:10:28;102312.47;;;7.55;100.00
11190;BME280;5651;50.926;4.718;2023-04-02T15:12:56;102319.81;;;7.42;100.00
11190;BME280;5651;50.926;4.718;2023-04-02T15:15:40;102318.47;;;7.54;100.00
11190;BME280;5651;50.926;4.718;2023-04-02T15:18:13;102316.56;;;7.48;100.00
11190;BME280;5651;50.926;4.718;2023-04-02T15:20:49;102318.81;;;7.65;100.00
11190;BME280;5651;50.926;4.718;2023-04-02T15:23:36;102322.91;;;7.58;100.00
11190;BME280;5651;50.926;4.718;2023-04-02T15:26:23;102327.22;;;7.57;100.00
11190;BME280;5651;50.926;4.718;2023-04-02T15:31:43;102334.06;;;7.55;100.00
11190;BME280;5651;50.926;4.718;2023-04-02T15:34:21;102328.06;;;7.56;100.00
11190;BME280;5651;50.926;4.718;2023-04-02T15:37:16;102332.16;;;7.50;100.00
11190;BME280;5651;50.926;4.718;2023-04-02T15:42:21;102341.41;;;7.41;100.00
11190;BME280;5651;50.926;4.718;2023-04-02T15:53:32;102351.84;;;7.70;100.00
11190;BME280;5651;50.926;4.718;2023-04-02T15:56:07;102356.00;;;7.65;100.00
11190;BME280;5651;50.926;4.718;2023-04-02T16:01:59;102352.38;;;7.87;100.00
11190;BME280;5651;50.926;4.718;2023-04-02T16:05:01;102350.50;;;7.83;100.00
11190;BME280;5651;50.926;4.718;2023-04-02T16:07:52;102350.63;;;7.86;100.00
11190;BME280;5651;50.926;4.718;2023-04-02T16:10:30;102352.28;;;7.84;100.00
11190;BME280;5651;50.926;4.718;2023-04-02T16:12:57;102366.47;;;7.96;100.00
11190;BME280;5651;50.926;4.718;2023-04-02T16:15:27;102367.53;;;8.02;100.00
11190;BME280;5651;50.926;4.718;2023-04-02T16:18:00;102370.91;;;8.00;100.00